Aviation Digital Data Service (ADDS)

Output produced by METARs form (1311 UTC 23 January 2019)
found at http://www.aviationweather.gov/metar/data/
 
METAR text: RJSY 231231Z 31013G24KT 280V350 9999 -SHSN FEW010 SCT020 BKN030 02/M03 Q1010 RMK 1ST010 3CU020 6CU030 A2982
Conditions at: RJSY (SHONAI , JP) observed 1231 UTC 23 January 2019
Temperature: 2.0°C (36°F)
Dewpoint: -3.0°C (27°F) [RH = 69%]
Pressure (altimeter): 29.82 inches Hg (1010.0 mb)
Winds: from the NW (310 degrees) at 15 MPH (13 knots; 6.7 m/s)
gusting to 28 MPH (24 knots; 12.3 m/s)
Visibility: 6 or more miles (10+ km)
Ceiling: 3000 feet AGL
Clouds: few clouds at 1000 feet AGL
scattered clouds at 2000 feet AGL
broken clouds at 3000 feet AGL
Weather: -SHSN  (light snow showers)

METAR text: RJSY 231200Z 31014G29KT 280V360 4500 -SHSN FEW008 SCT020 BKN030 02/M02 Q1010
Conditions at: RJSY (SHONAI , JP) observed 1200 UTC 23 January 2019
Temperature: 2.0°C (36°F)
Dewpoint: -2.0°C (28°F) [RH = 75%]
Pressure (altimeter): 29.82 inches Hg (1010.0 mb)
Winds: from the NW (310 degrees) at 16 MPH (14 knots; 7.2 m/s)
gusting to 33 MPH (29 knots; 14.9 m/s)
Visibility: 2.80 miles (4.51 km)
Ceiling: 3000 feet AGL
Clouds: few clouds at 800 feet AGL
scattered clouds at 2000 feet AGL
broken clouds at 3000 feet AGL
Weather: -SHSN  (light snow showers)

METAR text: RJSY 231100Z 32012G27KT 280V040 9999 -SHSN FEW010 SCT020 BKN030 03/M02 Q1010
Conditions at: RJSY (SHONAI , JP) observed 1100 UTC 23 January 2019
Temperature: 3.0°C (37°F)
Dewpoint: -2.0°C (28°F) [RH = 70%]
Pressure (altimeter): 29.82 inches Hg (1010.0 mb)
Winds: from the NW (320 degrees) at 14 MPH (12 knots; 6.2 m/s)
gusting to 31 MPH (27 knots; 13.9 m/s)
Visibility: 6 or more miles (10+ km)
Ceiling: 3000 feet AGL
Clouds: few clouds at 1000 feet AGL
scattered clouds at 2000 feet AGL
broken clouds at 3000 feet AGL
Weather: -SHSN  (light snow showers)

METAR text: RJSY 231000Z 32010G21KT 280V360 9999 -SHSN FEW010 SCT020 BKN040 04/M04 Q1009
Conditions at: RJSY (SHONAI , JP) observed 1000 UTC 23 January 2019
Temperature: 4.0°C (39°F)
Dewpoint: -4.0°C (25°F) [RH = 56%]
Pressure (altimeter): 29.79 inches Hg (1009.0 mb)
Winds: from the NW (320 degrees) at 12 MPH (10 knots; 5.1 m/s)
gusting to 24 MPH (21 knots; 10.8 m/s)
Visibility: 6 or more miles (10+ km)
Ceiling: 4000 feet AGL
Clouds: few clouds at 1000 feet AGL
scattered clouds at 2000 feet AGL
broken clouds at 4000 feet AGL
Weather: -SHSN  (light snow showers)

METAR text: RJSY 230900Z 33013G23KT 290V020 9999 FEW010 SCT020 BKN040 04/M03 Q1008
Conditions at: RJSY (SHONAI , JP) observed 0900 UTC 23 January 2019
Temperature: 4.0°C (39°F)
Dewpoint: -3.0°C (27°F) [RH = 60%]
Pressure (altimeter): 29.76 inches Hg (1008.0 mb)
Winds: from the NNW (330 degrees) at 15 MPH (13 knots; 6.7 m/s)
gusting to 26 MPH (23 knots; 11.8 m/s)
Visibility: 6 or more miles (10+ km)
Ceiling: 4000 feet AGL
Clouds: few clouds at 1000 feet AGL
scattered clouds at 2000 feet AGL
broken clouds at 4000 feet AGL
Weather: no significant weather observed at this time

METAR text: RJSY 230800Z 31016KT 7000 -SHRA FEW005 SCT010 BKN015 04/03 Q1007
Conditions at: RJSY (SHONAI , JP) observed 0800 UTC 23 January 2019
Temperature: 4.0°C (39°F)
Dewpoint: 3.0°C (37°F) [RH = 93%]
Pressure (altimeter): 29.73 inches Hg (1007.0 mb)
Winds: from the NW (310 degrees) at 18 MPH (16 knots; 8.2 m/s)
Visibility: 4 miles ( 7 km)
Ceiling: 1500 feet AGL
Clouds: few clouds at 500 feet AGL
scattered clouds at 1000 feet AGL
broken clouds at 1500 feet AGL
Weather: -SHRA  (light rain showers)

METAR text: RJSY 230719Z 31016G29KT 280V350 7000 -SHRA FEW005 SCT008 BKN015 04/03 Q1006 RMK 1ST005 4ST008 6CU015 A2972
Conditions at: RJSY (SHONAI , JP) observed 0719 UTC 23 January 2019
Temperature: 4.0°C (39°F)
Dewpoint: 3.0°C (37°F) [RH = 93%]
Pressure (altimeter): 29.70 inches Hg (1006.0 mb)
Winds: from the NW (310 degrees) at 18 MPH (16 knots; 8.2 m/s)
gusting to 33 MPH (29 knots; 14.9 m/s)
Visibility: 4 miles ( 7 km)
Ceiling: 1500 feet AGL
Clouds: few clouds at 500 feet AGL
scattered clouds at 800 feet AGL
broken clouds at 1500 feet AGL
Weather: -SHRA  (light rain showers)

METAR text: RJSY 230703Z 28026G40KT 3000 R09/1500VP2000U +TSRAGSSN SQ BR FEW005 SCT010 BKN015 FEW020CB 03/03 Q1006 RMK 1ST005 4ST010 6CU015 2CB020 A2972 FBL TS OHD MOV E SMALL HAIL
Conditions at: RJSY (SHONAI , JP) observed 0703 UTC 23 January 2019
Temperature: 3.0°C (37°F)
Dewpoint: 3.0°C (37°F) [RH = 100%]
Pressure (altimeter): 29.70 inches Hg (1006.0 mb)
Winds: from the W (280 degrees) at 30 MPH (26 knots; 13.4 m/s)
gusting to 46 MPH (40 knots; 20.6 m/s)
Visibility: 1.86 miles (2.99 km)
Ceiling: 1500 feet AGL
Clouds: few clouds at 500 feet AGL
scattered clouds at 1000 feet AGL
broken clouds at 1500 feet AGL
few clouds at 2000 feet AGL
Weather: +TSRA GS SN  (heavy rain associated with thunderstorm(s), small hail or graupel, moderate snow)

METAR text: RJSY 230700Z 23019G35KT 210V280 5000 R09/1800U SHRAGS BR FEW005 SCT010 BKN015 FEW020CB 03/02 Q1006
Conditions at: RJSY (SHONAI , JP) observed 0700 UTC 23 January 2019
Temperature: 3.0°C (37°F)
Dewpoint: 2.0°C (36°F) [RH = 93%]
Pressure (altimeter): 29.70 inches Hg (1006.0 mb)
Winds: from the SW (230 degrees) at 22 MPH (19 knots; 9.8 m/s)
gusting to 40 MPH (35 knots; 18.0 m/s)
Visibility: 3 miles ( 5 km)
Ceiling: 1500 feet AGL
Clouds: few clouds at 500 feet AGL
scattered clouds at 1000 feet AGL
broken clouds at 1500 feet AGL
few clouds at 2000 feet AGL
Weather: SHRA GS BR  (rain showers, small hail or graupel, mist)

METAR text: RJSY 230634Z 23010KT 190V250 9999 -TSRAGS FEW005 SCT010 BKN020 FEW020CB 04/02 Q1005 RMK 1ST005 3ST010 5CU020 1CB020 A2970 FBL TS 20KM N MOV NE SMALL HAIL
Conditions at: RJSY (SHONAI , JP) observed 0634 UTC 23 January 2019
Temperature: 4.0°C (39°F)
Dewpoint: 2.0°C (36°F) [RH = 87%]
Pressure (altimeter): 29.68 inches Hg (1005.0 mb)
Winds: from the SW (230 degrees) at 12 MPH (10 knots; 5.1 m/s)
Visibility: 6 or more miles (10+ km)
Ceiling: 2000 feet AGL
Clouds: few clouds at 500 feet AGL
scattered clouds at 1000 feet AGL
broken clouds at 2000 feet AGL
few clouds at 2000 feet AGL
Weather: -TSRA -TSGS  (light rain associated with thunderstorm(s), unknown weather)

METAR text: RJSY 230609Z 22011KT 160V250 9999 -SHRA FEW005 SCT010 BKN020 04/02 Q1006 RMK 1ST005 3ST010 6CU020 A2972
Conditions at: RJSY (SHONAI , JP) observed 0609 UTC 23 January 2019
Temperature: 4.0°C (39°F)
Dewpoint: 2.0°C (36°F) [RH = 87%]
Pressure (altimeter): 29.70 inches Hg (1006.0 mb)
Winds: from the SW (220 degrees) at 13 MPH (11 knots; 5.7 m/s)
Visibility: 6 or more miles (10+ km)
Ceiling: 2000 feet AGL
Clouds: few clouds at 500 feet AGL
scattered clouds at 1000 feet AGL
broken clouds at 2000 feet AGL
Weather: -SHRA  (light rain showers)

METAR text: RJSY 230600Z 22013KT 8000 -TSRAGS FEW005 SCT010 BKN020 FEW020CB 04/02 Q1006
Conditions at: RJSY (SHONAI , JP) observed 0600 UTC 23 January 2019
Temperature: 4.0°C (39°F)
Dewpoint: 2.0°C (36°F) [RH = 87%]
Pressure (altimeter): 29.70 inches Hg (1006.0 mb)
Winds: from the SW (220 degrees) at 15 MPH (13 knots; 6.7 m/s)
Visibility: 5 miles ( 8 km)
Ceiling: 2000 feet AGL
Clouds: few clouds at 500 feet AGL
scattered clouds at 1000 feet AGL
broken clouds at 2000 feet AGL
few clouds at 2000 feet AGL
Weather: -TSRA -TSGS  (light rain associated with thunderstorm(s), unknown weather)

METAR text: RJSY 230539Z 22017G27KT 9999 -TSRA FEW005 SCT010 BKN020 FEW020CB 04/02 Q1006 RMK 1ST005 3ST010 6CU020 1CB020 A2971 FBL TS 15KM W MOV NE
Conditions at: RJSY (SHONAI , JP) observed 0539 UTC 23 January 2019
Temperature: 4.0°C (39°F)
Dewpoint: 2.0°C (36°F) [RH = 87%]
Pressure (altimeter): 29.70 inches Hg (1006.0 mb)
Winds: from the SW (220 degrees) at 20 MPH (17 knots; 8.7 m/s)
gusting to 31 MPH (27 knots; 13.9 m/s)
Visibility: 6 or more miles (10+ km)
Ceiling: 2000 feet AGL
Clouds: few clouds at 500 feet AGL
scattered clouds at 1000 feet AGL
broken clouds at 2000 feet AGL
few clouds at 2000 feet AGL
Weather: -TSRA  (light rain associated with thunderstorm(s))

METAR text: RJSY 230500Z 18003KT 120V220 7000 SHRA FEW005 SCT010 BKN015 03/01 Q1006
Conditions at: RJSY (SHONAI , JP) observed 0500 UTC 23 January 2019
Temperature: 3.0°C (37°F)
Dewpoint: 1.0°C (34°F) [RH = 87%]
Pressure (altimeter): 29.70 inches Hg (1006.0 mb)
Winds: from the S (180 degrees) at 3 MPH (3 knots; 1.5 m/s)
Visibility: 4 miles ( 7 km)
Ceiling: 1500 feet AGL
Clouds: few clouds at 500 feet AGL
scattered clouds at 1000 feet AGL
broken clouds at 1500 feet AGL
Weather: SHRA  (rain showers)

METAR text: RJSY 230400Z 18005KT 140V220 9999 -SHRA FEW010 SCT015 BKN020 03/01 Q1007
Conditions at: RJSY (SHONAI , JP) observed 0400 UTC 23 January 2019
Temperature: 3.0°C (37°F)
Dewpoint: 1.0°C (34°F) [RH = 87%]
Pressure (altimeter): 29.73 inches Hg (1007.0 mb)
Winds: from the S (180 degrees) at 6 MPH (5 knots; 2.6 m/s)
Visibility: 6 or more miles (10+ km)
Ceiling: 2000 feet AGL
Clouds: few clouds at 1000 feet AGL
scattered clouds at 1500 feet AGL
broken clouds at 2000 feet AGL
Weather: -SHRA  (light rain showers)

METAR text: RJSY 230300Z VRB04KT 9999 -SHRA FEW015 SCT020 BKN030 04/00 Q1008
Conditions at: RJSY (SHONAI , JP) observed 0300 UTC 23 January 2019
Temperature: 4.0°C (39°F)
Dewpoint: 0.0°C (32°F) [RH = 75%]
Pressure (altimeter): 29.76 inches Hg (1008.0 mb)
Winds: variable direction winds at 5 MPH (4 knots; 2.1 m/s)
Visibility: 6 or more miles (10+ km)
Ceiling: 3000 feet AGL
Clouds: few clouds at 1500 feet AGL
scattered clouds at 2000 feet AGL
broken clouds at 3000 feet AGL
Weather: -SHRA  (light rain showers)

METAR text: RJSY 230200Z 08009KT 9999 FEW020 SCT040 BKN050 02/M00 Q1009
Conditions at: RJSY (SHONAI , JP) observed 0200 UTC 23 January 2019
Temperature: 2.0°C (36°F)
Dewpoint: 0.0°C (32°F) [RH = 87%]
Pressure (altimeter): 29.79 inches Hg (1009.0 mb)
Winds: from the E (80 degrees) at 10 MPH (9 knots; 4.6 m/s)
Visibility: 6 or more miles (10+ km)
Ceiling: 5000 feet AGL
Clouds: few clouds at 2000 feet AGL
scattered clouds at 4000 feet AGL
broken clouds at 5000 feet AGL
Weather: no significant weather observed at this time

METAR text: RJSY 230100Z 12006KT 9999 -SHRA FEW010 SCT025 BKN035 01/M00 Q1011
Conditions at: RJSY (SHONAI , JP) observed 0100 UTC 23 January 2019
Temperature: 1.0°C (34°F)
Dewpoint: 0.0°C (32°F) [RH = 93%]
Pressure (altimeter): 29.85 inches Hg (1011.0 mb)
Winds: from the ESE (120 degrees) at 7 MPH (6 knots; 3.1 m/s)
Visibility: 6 or more miles (10+ km)
Ceiling: 3500 feet AGL
Clouds: few clouds at 1000 feet AGL
scattered clouds at 2500 feet AGL
broken clouds at 3500 feet AGL
Weather: -SHRA  (light rain showers)

METAR text: RJSY 230000Z 09008KT 9999 FEW020 SCT050 BKN090 01/00 Q1011
Conditions at: RJSY (SHONAI , JP) observed 0000 UTC 23 January 2019
Temperature: 1.0°C (34°F)
Dewpoint: 0.0°C (32°F) [RH = 93%]
Pressure (altimeter): 29.85 inches Hg (1011.0 mb)
Winds: from the E (90 degrees) at 9 MPH (8 knots; 4.1 m/s)
Visibility: 6 or more miles (10+ km)
Ceiling: 9000 feet AGL
Clouds: few clouds at 2000 feet AGL
scattered clouds at 5000 feet AGL
broken clouds at 9000 feet AGL
Weather: no significant weather observed at this time

METAR text: RJSY 222300Z 11003KT 070V170 9999 -SHRASN FEW010 SCT015 BKN025 01/M00 Q1012
Conditions at: RJSY (SHONAI , JP) observed 2300 UTC 22 January 2019
Temperature: 1.0°C (34°F)
Dewpoint: 0.0°C (32°F) [RH = 93%]
Pressure (altimeter): 29.88 inches Hg (1012.0 mb)
Winds: from the ESE (110 degrees) at 3 MPH (3 knots; 1.5 m/s)
Visibility: 6 or more miles (10+ km)
Ceiling: 2500 feet AGL
Clouds: few clouds at 1000 feet AGL
scattered clouds at 1500 feet AGL
broken clouds at 2500 feet AGL
Weather: -SHRA -SHSN  (light rain showers, light snow showers)

METAR text: RJSY 222200Z 14004KT 110V190 9999 FEW015 SCT050 BKN070 01/M01 Q1012
Conditions at: RJSY (SHONAI , JP) observed 2200 UTC 22 January 2019
Temperature: 1.0°C (34°F)
Dewpoint: -1.0°C (30°F) [RH = 86%]
Pressure (altimeter): 29.88 inches Hg (1012.0 mb)
Winds: from the SE (140 degrees) at 5 MPH (4 knots; 2.1 m/s)
Visibility: 6 or more miles (10+ km)
Ceiling: 7000 feet AGL
Clouds: few clouds at 1500 feet AGL
scattered clouds at 5000 feet AGL
broken clouds at 7000 feet AGL
Weather: no significant weather observed at this time

METAR text: RJSY 221200Z 27016KT 9999 FEW025 SCT040 BKN050 03/M04 Q1014
Conditions at: RJSY (SHONAI , JP) observed 1200 UTC 22 January 2019
Temperature: 3.0°C (37°F)
Dewpoint: -4.0°C (25°F) [RH = 60%]
Pressure (altimeter): 29.94 inches Hg (1014.0 mb)
Winds: from the W (270 degrees) at 18 MPH (16 knots; 8.2 m/s)
Visibility: 6 or more miles (10+ km)
Ceiling: 5000 feet AGL
Clouds: few clouds at 2500 feet AGL
scattered clouds at 4000 feet AGL
broken clouds at 5000 feet AGL
Weather: no significant weather observed at this time

METAR text: RJSY 221100Z 28017KT 9999 -SHSN FEW025 SCT040 BKN050 03/M04 Q1014
Conditions at: RJSY (SHONAI , JP) observed 1100 UTC 22 January 2019
Temperature: 3.0°C (37°F)
Dewpoint: -4.0°C (25°F) [RH = 60%]
Pressure (altimeter): 29.94 inches Hg (1014.0 mb)
Winds: from the W (280 degrees) at 20 MPH (17 knots; 8.7 m/s)
Visibility: 6 or more miles (10+ km)
Ceiling: 5000 feet AGL
Clouds: few clouds at 2500 feet AGL
scattered clouds at 4000 feet AGL
broken clouds at 5000 feet AGL
Weather: -SHSN  (light snow showers)

METAR text: RJSY 221000Z 28017KT 9999 -SHSN FEW020 SCT035 BKN050 03/M05 Q1014
Conditions at: RJSY (SHONAI , JP) observed 1000 UTC 22 January 2019
Temperature: 3.0°C (37°F)
Dewpoint: -5.0°C (23°F) [RH = 56%]
Pressure (altimeter): 29.94 inches Hg (1014.0 mb)
Winds: from the W (280 degrees) at 20 MPH (17 knots; 8.7 m/s)
Visibility: 6 or more miles (10+ km)
Ceiling: 5000 feet AGL
Clouds: few clouds at 2000 feet AGL
scattered clouds at 3500 feet AGL
broken clouds at 5000 feet AGL
Weather: -SHSN  (light snow showers)

METAR text: RJSY 220900Z 29018G28KT 9999 -SHSN FEW015 SCT035 BKN045 03/M04 Q1014
Conditions at: RJSY (SHONAI , JP) observed 0900 UTC 22 January 2019
Temperature: 3.0°C (37°F)
Dewpoint: -4.0°C (25°F) [RH = 60%]
Pressure (altimeter): 29.94 inches Hg (1014.0 mb)
Winds: from the WNW (290 degrees) at 21 MPH (18 knots; 9.3 m/s)
gusting to 32 MPH (28 knots; 14.4 m/s)
Visibility: 6 or more miles (10+ km)
Ceiling: 4500 feet AGL
Clouds: few clouds at 1500 feet AGL
scattered clouds at 3500 feet AGL
broken clouds at 4500 feet AGL
Weather: -SHSN  (light snow showers)

METAR text: RJSY 220800Z 27018KT 9999 -SHSN FEW015 SCT035 BKN045 03/M04 Q1014
Conditions at: RJSY (SHONAI , JP) observed 0800 UTC 22 January 2019
Temperature: 3.0°C (37°F)
Dewpoint: -4.0°C (25°F) [RH = 60%]
Pressure (altimeter): 29.94 inches Hg (1014.0 mb)
Winds: from the W (270 degrees) at 21 MPH (18 knots; 9.3 m/s)
Visibility: 6 or more miles (10+ km)
Ceiling: 4500 feet AGL
Clouds: few clouds at 1500 feet AGL
scattered clouds at 3500 feet AGL
broken clouds at 4500 feet AGL
Weather: -SHSN  (light snow showers)

METAR text: RJSY 220700Z 28019KT 9999 -SHSN FEW010 SCT025 BKN040 03/M04 Q1013
Conditions at: RJSY (SHONAI , JP) observed 0700 UTC 22 January 2019
Temperature: 3.0°C (37°F)
Dewpoint: -4.0°C (25°F) [RH = 60%]
Pressure (altimeter): 29.91 inches Hg (1013.0 mb)
Winds: from the W (280 degrees) at 22 MPH (19 knots; 9.8 m/s)
Visibility: 6 or more miles (10+ km)
Ceiling: 4000 feet AGL
Clouds: few clouds at 1000 feet AGL
scattered clouds at 2500 feet AGL
broken clouds at 4000 feet AGL
Weather: -SHSN  (light snow showers)

METAR text: RJSY 220600Z 30015KT 270V340 9999 -SHSN FEW010 SCT025 BKN040 02/M01 Q1013
Conditions at: RJSY (SHONAI , JP) observed 0600 UTC 22 January 2019
Temperature: 2.0°C (36°F)
Dewpoint: -1.0°C (30°F) [RH = 80%]
Pressure (altimeter): 29.91 inches Hg (1013.0 mb)
Winds: from the WNW (300 degrees) at 17 MPH (15 knots; 7.7 m/s)
Visibility: 6 or more miles (10+ km)
Ceiling: 4000 feet AGL
Clouds: few clouds at 1000 feet AGL
scattered clouds at 2500 feet AGL
broken clouds at 4000 feet AGL
Weather: -SHSN  (light snow showers)

METAR text: RJSY 220534Z 29017KT 1200 R09/1000VP2000D -SHSN FEW003 SCT005 BKN010 01/M01 Q1013 RMK 1ST003 3ST005 6ST010 A2992
Conditions at: RJSY (SHONAI , JP) observed 0534 UTC 22 January 2019
Temperature: 1.0°C (34°F)
Dewpoint: -1.0°C (30°F) [RH = 86%]
Pressure (altimeter): 29.91 inches Hg (1013.0 mb)
Winds: from the WNW (290 degrees) at 20 MPH (17 knots; 8.7 m/s)
Visibility: 0.75 miles (1.21 km)
Ceiling: 1000 feet AGL
Clouds: few clouds at 300 feet AGL
scattered clouds at 500 feet AGL
broken clouds at 1000 feet AGL
Weather: -SHSN  (light snow showers)

METAR text: RJSY 220500Z 27022KT 5000 R09/0750VP2000U -SHSN FEW006 SCT015 BKN025 01/M01 Q1012
Conditions at: RJSY (SHONAI , JP) observed 0500 UTC 22 January 2019
Temperature: 1.0°C (34°F)
Dewpoint: -1.0°C (30°F) [RH = 86%]
Pressure (altimeter): 29.88 inches Hg (1012.0 mb)
Winds: from the W (270 degrees) at 25 MPH (22 knots; 11.3 m/s)
Visibility: 3 miles ( 5 km)
Ceiling: 2500 feet AGL
Clouds: few clouds at 600 feet AGL
scattered clouds at 1500 feet AGL
broken clouds at 2500 feet AGL
Weather: -SHSN  (light snow showers)

METAR text: RJSY 220400Z 27020G30KT 240V310 5000 -SHSN FEW015 SCT025 BKN035 02/M04 Q1012
Conditions at: RJSY (SHONAI , JP) observed 0400 UTC 22 January 2019
Temperature: 2.0°C (36°F)
Dewpoint: -4.0°C (25°F) [RH = 64%]
Pressure (altimeter): 29.88 inches Hg (1012.0 mb)
Winds: from the W (270 degrees) at 23 MPH (20 knots; 10.3 m/s)
gusting to 34 MPH (30 knots; 15.4 m/s)
Visibility: 3 miles ( 5 km)
Ceiling: 3500 feet AGL
Clouds: few clouds at 1500 feet AGL
scattered clouds at 2500 feet AGL
broken clouds at 3500 feet AGL
Weather: -SHSN  (light snow showers)

METAR text: RJSY 220300Z 31015KT 280V360 9999 VCSH FEW020 SCT030 BKN040 02/M01 Q1012
Conditions at: RJSY (SHONAI , JP) observed 0300 UTC 22 January 2019
Temperature: 2.0°C (36°F)
Dewpoint: -1.0°C (30°F) [RH = 80%]
Pressure (altimeter): 29.88 inches Hg (1012.0 mb)
Winds: from the NW (310 degrees) at 17 MPH (15 knots; 7.7 m/s)
Visibility: 6 or more miles (10+ km)
Ceiling: 4000 feet AGL
Clouds: few clouds at 2000 feet AGL
scattered clouds at 3000 feet AGL
broken clouds at 4000 feet AGL
Weather: VCSH  (showers in vicinity)

METAR text: RJSY 220243Z 30016G28KT 270V340 4000 R09/0450VP2000U -SHSN FEW005 SCT010 BKN020 01/M01 Q1012 RMK 1ST005 3ST010 6CU020 A2990
Conditions at: RJSY (SHONAI , JP) observed 0243 UTC 22 January 2019
Temperature: 1.0°C (34°F)
Dewpoint: -1.0°C (30°F) [RH = 86%]
Pressure (altimeter): 29.88 inches Hg (1012.0 mb)
Winds: from the WNW (300 degrees) at 18 MPH (16 knots; 8.2 m/s)
gusting to 32 MPH (28 knots; 14.4 m/s)
Visibility: 2.49 miles (4.01 km)
Ceiling: 2000 feet AGL
Clouds: few clouds at 500 feet AGL
scattered clouds at 1000 feet AGL
broken clouds at 2000 feet AGL
Weather: -SHSN  (light snow showers)

METAR text: RJSY 220236Z 28019G29KT 260V330 0600 R09/0550VP2000D SHSN FEW002 SCT005 BKN007 00/M01 Q1012 RMK 1ST002 3ST005 6ST007 A2991
Conditions at: RJSY (SHONAI , JP) observed 0236 UTC 22 January 2019
Temperature: 0.0°C (32°F)
Dewpoint: -1.0°C (30°F) [RH = 93%]
Pressure (altimeter): 29.88 inches Hg (1012.0 mb)
Winds: from the W (280 degrees) at 22 MPH (19 knots; 9.8 m/s)
gusting to 33 MPH (29 knots; 14.9 m/s)
Visibility: 0.37 miles (0.60 km)
Ceiling: 700 feet AGL
Clouds: few clouds at 200 feet AGL
scattered clouds at 500 feet AGL
broken clouds at 700 feet AGL
Weather: SHSN  (snow showers)

METAR text: RJSY 220231Z 29015G29KT 260V330 3000 R09/1500VP2000D -SHSN FEW010 SCT015 BKN025 01/M02 Q1012 RMK 1ST010 3CU015 6CU025 A2990
Conditions at: RJSY (SHONAI , JP) observed 0231 UTC 22 January 2019
Temperature: 1.0°C (34°F)
Dewpoint: -2.0°C (28°F) [RH = 80%]
Pressure (altimeter): 29.88 inches Hg (1012.0 mb)
Winds: from the WNW (290 degrees) at 17 MPH (15 knots; 7.7 m/s)
gusting to 33 MPH (29 knots; 14.9 m/s)
Visibility: 1.86 miles (2.99 km)
Ceiling: 2500 feet AGL
Clouds: few clouds at 1000 feet AGL
scattered clouds at 1500 feet AGL
broken clouds at 2500 feet AGL
Weather: -SHSN  (light snow showers)

METAR text: RJSY 220200Z 29019G31KT 270V330 3000 -SHSN FEW010 SCT015 BKN020 01/M01 Q1012
Conditions at: RJSY (SHONAI , JP) observed 0200 UTC 22 January 2019
Temperature: 1.0°C (34°F)
Dewpoint: -1.0°C (30°F) [RH = 86%]
Pressure (altimeter): 29.88 inches Hg (1012.0 mb)
Winds: from the WNW (290 degrees) at 22 MPH (19 knots; 9.8 m/s)
gusting to 36 MPH (31 knots; 15.9 m/s)
Visibility: 1.86 miles (2.99 km)
Ceiling: 2000 feet AGL
Clouds: few clouds at 1000 feet AGL
scattered clouds at 1500 feet AGL
broken clouds at 2000 feet AGL
Weather: -SHSN  (light snow showers)